sensor_id;sensor_type;location;lat;lon;timestamp;P1;durP1;ratioP1;P2;durP2;ratioP2
54263;SDS011;40178;53.042;6.406;2023-04-03T00:02:10;4.20;;;0.50;;
54263;SDS011;40178;53.042;6.406;2023-04-03T00:04:35;2.72;;;0.52;;
54263;SDS011;40178;53.042;6.406;2023-04-03T00:07:01;2.40;;;0.40;;
54263;SDS011;40178;53.042;6.406;2023-04-03T00:09:27;4.03;;;0.82;;
54263;SDS011;40178;53.042;6.406;2023-04-03T00:11:52;4.32;;;0.60;;
54263;SDS011;40178;53.042;6.406;2023-04-03T00:14:18;1.25;;;0.30;;
54263;SDS011;40178;53.042;6.406;2023-04-03T00:16:44;1.88;;;0.35;;
54263;SDS011;40178;53.042;6.406;2023-04-03T00:19:09;2.88;;;0.40;;
54263;SDS011;40178;53.042;6.406;2023-04-03T00:21:37;1.95;;;0.52;;
54263;SDS011;40178;53.042;6.406;2023-04-03T00:24:02;1.90;;;0.50;;
54263;SDS011;40178;53.042;6.406;2023-04-03T00:26:28;2.65;;;0.50;;
54263;SDS011;40178;53.042;6.406;2023-04-03T00:28:54;3.20;;;0.70;;
54263;SDS011;40178;53.042;6.406;2023-04-03T00:31:21;3.15;;;0.52;;
54263;SDS011;40178;53.042;6.406;2023-04-03T00:33:47;1.67;;;0.43;;
54263;SDS011;40178;53.042;6.406;2023-04-03T00:36:12;1.77;;;0.43;;
54263;SDS011;40178;53.042;6.406;2023-04-03T00:38:38;2.35;;;0.50;;
54263;SDS011;40178;53.042;6.406;2023-04-03T00:41:04;1.58;;;0.55;;
54263;SDS011;40178;53.042;6.406;2023-04-03T00:43:30;1.90;;;0.43;;
54263;SDS011;40178;53.042;6.406;2023-04-03T00:45:56;2.40;;;0.55;;
54263;SDS011;40178;53.042;6.406;2023-04-03T00:48:37;2.08;;;0.52;;
54263;SDS011;40178;53.042;6.406;2023-04-03T00:51:07;4.10;;;0.63;;
54263;SDS011;40178;53.042;6.406;2023-04-03T00:56:33;4.03;;;0.60;;
54263;SDS011;40178;53.042;6.406;2023-04-03T00:59:08;3.97;;;0.80;;
54263;SDS011;40178;53.042;6.406;2023-04-03T01:01:37;2.60;;;0.50;;
54263;SDS011;40178;53.042;6.406;2023-04-03T01:04:03;4.88;;;0.70;;
54263;SDS011;40178;53.042;6.406;2023-04-03T01:06:32;4.03;;;0.57;;
54263;SDS011;40178;53.042;6.406;2023-04-03T01:09:01;2.42;;;0.50;;
54263;SDS011;40178;53.042;6.406;2023-04-03T01:11:28;3.28;;;0.70;;
54263;SDS011;40178;53.042;6.406;2023-04-03T01:13:53;4.03;;;0.73;;
54263;SDS011;40178;53.042;6.406;2023-04-03T01:16:19;3.88;;;0.50;;
54263;SDS011;40178;53.042;6.406;2023-04-03T01:18:45;2.53;;;0.50;;
54263;SDS011;40178;53.042;6.406;2023-04-03T01:24:11;2.97;;;0.40;;
54263;SDS011;40178;53.042;6.406;2023-04-03T01:26:42;4.00;;;0.88;;
54263;SDS011;40178;53.042;6.406;2023-04-03T01:29:08;6.32;;;0.77;;
54263;SDS011;40178;53.042;6.406;2023-04-03T01:33:59;3.00;;;0.80;;
54263;SDS011;40178;53.042;6.406;2023-04-03T01:36:27;2.30;;;0.40;;
54263;SDS011;40178;53.042;6.406;2023-04-03T01:38:54;3.70;;;0.60;;
54263;SDS011;40178;53.042;6.406;2023-04-03T01:41:21;4.50;;;0.70;;
54263;SDS011;40178;53.042;6.406;2023-04-03T01:43:47;4.60;;;0.90;;
54263;SDS011;40178;53.042;6.406;2023-04-03T01:46:14;5.18;;;1.10;;
54263;SDS011;40178;53.042;6.406;2023-04-03T01:48:40;3.58;;;0.68;;
54263;SDS011;40178;53.042;6.406;2023-04-03T01:51:06;3.70;;;0.63;;
54263;SDS011;40178;53.042;6.406;2023-04-03T02:08:43;5.43;;;1.10;;
54263;SDS011;40178;53.042;6.406;2023-04-03T02:14:22;4.10;;;0.90;;
54263;SDS011;40178;53.042;6.406;2023-04-03T02:16:49;3.90;;;0.85;;
54263;SDS011;40178;53.042;6.406;2023-04-03T02:19:15;3.83;;;1.00;;
54263;SDS011;40178;53.042;6.406;2023-04-03T02:21:40;6.43;;;1.30;;
54263;SDS011;40178;53.042;6.406;2023-04-03T02:24:06;3.40;;;1.00;;
54263;SDS011;40178;53.042;6.406;2023-04-03T02:26:32;3.40;;;0.90;;
54263;SDS011;40178;53.042;6.406;2023-04-03T02:28:58;3.75;;;1.20;;
54263;SDS011;40178;53.042;6.406;2023-04-03T02:31:23;3.67;;;0.75;;
54263;SDS011;40178;53.042;6.406;2023-04-03T02:33:49;5.20;;;1.05;;
54263;SDS011;40178;53.042;6.406;2023-04-03T02:36:15;4.85;;;0.90;;
54263;SDS011;40178;53.042;6.406;2023-04-03T02:38:40;4.10;;;1.00;;
54263;SDS011;40178;53.042;6.406;2023-04-03T02:41:07;5.80;;;1.15;;
54263;SDS011;40178;53.042;6.406;2023-04-03T02:43:34;4.65;;;1.00;;
54263;SDS011;40178;53.042;6.406;2023-04-03T02:46:00;3.92;;;1.38;;
54263;SDS011;40178;53.042;6.406;2023-04-03T02:48:25;3.17;;;0.95;;
54263;SDS011;40178;53.042;6.406;2023-04-03T02:50:51;4.97;;;1.50;;
54263;SDS011;40178;53.042;6.406;2023-04-03T02:53:17;4.35;;;1.20;;
54263;SDS011;40178;53.042;6.406;2023-04-03T02:55:44;5.25;;;1.08;;
54263;SDS011;40178;53.042;6.406;2023-04-03T02:58:10;3.63;;;1.10;;
54263;SDS011;40178;53.042;6.406;2023-04-03T03:00:36;6.05;;;1.33;;
54263;SDS011;40178;53.042;6.406;2023-04-03T03:03:02;4.20;;;1.02;;
54263;SDS011;40178;53.042;6.406;2023-04-03T03:05:28;5.28;;;1.33;;
54263;SDS011;40178;53.042;6.406;2023-04-03T03:07:54;4.38;;;1.20;;
54263;SDS011;40178;53.042;6.406;2023-04-03T03:10:20;4.47;;;0.90;;
54263;SDS011;40178;53.042;6.406;2023-04-03T03:12:46;3.72;;;1.05;;
54263;SDS011;40178;53.042;6.406;2023-04-03T03:15:12;4.82;;;1.20;;
54263;SDS011;40178;53.042;6.406;2023-04-03T03:17:38;4.43;;;1.10;;
54263;SDS011;40178;53.042;6.406;2023-04-03T03:20:04;4.85;;;1.20;;
54263;SDS011;40178;53.042;6.406;2023-04-03T03:22:31;5.30;;;1.20;;
54263;SDS011;40178;53.042;6.406;2023-04-03T03:24:57;4.45;;;1.23;;
54263;SDS011;40178;53.042;6.406;2023-04-03T03:27:22;4.10;;;1.67;;
54263;SDS011;40178;53.042;6.406;2023-04-03T03:29:49;4.15;;;1.10;;
54263;SDS011;40178;53.042;6.406;2023-04-03T03:32:14;10.25;;;1.95;;
54263;SDS011;40178;53.042;6.406;2023-04-03T03:34:40;9.95;;;1.77;;
54263;SDS011;40178;53.042;6.406;2023-04-03T03:37:06;5.03;;;1.00;;
54263;SDS011;40178;53.042;6.406;2023-04-03T03:39:31;14.65;;;2.50;;
54263;SDS011;40178;53.042;6.406;2023-04-03T03:41:57;5.65;;;0.90;;
54263;SDS011;40178;53.042;6.406;2023-04-03T03:44:22;5.50;;;1.17;;
54263;SDS011;40178;53.042;6.406;2023-04-03T03:46:48;4.45;;;1.10;;
54263;SDS011;40178;53.042;6.406;2023-04-03T03:49:14;6.38;;;1.38;;
54263;SDS011;40178;53.042;6.406;2023-04-03T03:51:40;6.18;;;1.20;;
54263;SDS011;40178;53.042;6.406;2023-04-03T03:54:06;10.00;;;1.42;;
54263;SDS011;40178;53.042;6.406;2023-04-03T03:56:32;5.88;;;1.10;;
54263;SDS011;40178;53.042;6.406;2023-04-03T03:58:58;4.70;;;1.40;;
54263;SDS011;40178;53.042;6.406;2023-04-03T04:01:24;10.60;;;1.55;;
54263;SDS011;40178;53.042;6.406;2023-04-03T04:03:50;4.05;;;1.23;;
54263;SDS011;40178;53.042;6.406;2023-04-03T04:06:16;3.58;;;1.08;;
54263;SDS011;40178;53.042;6.406;2023-04-03T04:08:42;5.07;;;0.95;;
54263;SDS011;40178;53.042;6.406;2023-04-03T04:11:08;8.13;;;1.33;;
54263;SDS011;40178;53.042;6.406;2023-04-03T04:13:34;4.63;;;1.63;;
54263;SDS011;40178;53.042;6.406;2023-04-03T04:16:00;5.50;;;1.40;;
54263;SDS011;40178;53.042;6.406;2023-04-03T04:18:26;3.90;;;1.65;;
54263;SDS011;40178;53.042;6.406;2023-04-03T04:20:52;3.65;;;1.10;;
54263;SDS011;40178;53.042;6.406;2023-04-03T04:23:18;5.60;;;1.30;;
54263;SDS011;40178;53.042;6.406;2023-04-03T04:25:44;6.43;;;1.75;;
54263;SDS011;40178;53.042;6.406;2023-04-03T04:28:11;8.13;;;2.13;;
54263;SDS011;40178;53.042;6.406;2023-04-03T04:30:36;4.80;;;1.50;;
54263;SDS011;40178;53.042;6.406;2023-04-03T04:33:02;5.47;;;1.20;;
54263;SDS011;40178;53.042;6.406;2023-04-03T04:35:28;5.70;;;2.00;;
54263;SDS011;40178;53.042;6.406;2023-04-03T04:37:54;6.88;;;1.60;;
54263;SDS011;40178;53.042;6.406;2023-04-03T04:40:19;5.88;;;1.65;;
54263;SDS011;40178;53.042;6.406;2023-04-03T04:42:45;4.72;;;1.67;;
54263;SDS011;40178;53.042;6.406;2023-04-03T04:45:11;5.30;;;1.60;;
54263;SDS011;40178;53.042;6.406;2023-04-03T04:47:37;8.25;;;1.50;;
54263;SDS011;40178;53.042;6.406;2023-04-03T04:50:03;5.63;;;1.58;;
54263;SDS011;40178;53.042;6.406;2023-04-03T04:52:29;5.32;;;1.58;;
54263;SDS011;40178;53.042;6.406;2023-04-03T04:54:54;4.82;;;1.80;;
54263;SDS011;40178;53.042;6.406;2023-04-03T04:57:20;6.10;;;1.52;;
54263;SDS011;40178;53.042;6.406;2023-04-03T04:59:46;5.15;;;2.17;;
54263;SDS011;40178;53.042;6.406;2023-04-03T05:02:11;4.97;;;1.55;;
54263;SDS011;40178;53.042;6.406;2023-04-03T05:04:37;5.55;;;1.55;;
54263;SDS011;40178;53.042;6.406;2023-04-03T05:07:03;4.65;;;1.60;;
54263;SDS011;40178;53.042;6.406;2023-04-03T05:09:28;6.43;;;1.60;;
54263;SDS011;40178;53.042;6.406;2023-04-03T05:11:54;5.25;;;2.08;;
54263;SDS011;40178;53.042;6.406;2023-04-03T05:14:21;6.78;;;1.67;;
54263;SDS011;40178;53.042;6.406;2023-04-03T05:16:47;7.65;;;2.38;;
54263;SDS011;40178;53.042;6.406;2023-04-03T05:19:12;6.85;;;2.45;;
54263;SDS011;40178;53.042;6.406;2023-04-03T05:21:38;8.07;;;2.13;;
54263;SDS011;40178;53.042;6.406;2023-04-03T05:24:04;9.80;;;2.60;;
54263;SDS011;40178;53.042;6.406;2023-04-03T05:26:30;7.53;;;2.38;;
54263;SDS011;40178;53.042;6.406;2023-04-03T05:28:56;6.55;;;2.08;;
54263;SDS011;40178;53.042;6.406;2023-04-03T05:31:22;7.50;;;2.10;;
54263;SDS011;40178;53.042;6.406;2023-04-03T05:33:47;10.02;;;2.58;;
54263;SDS011;40178;53.042;6.406;2023-04-03T05:36:13;7.60;;;2.15;;
54263;SDS011;40178;53.042;6.406;2023-04-03T05:38:39;7.22;;;2.05;;
54263;SDS011;40178;53.042;6.406;2023-04-03T05:41:05;6.88;;;2.03;;
54263;SDS011;40178;53.042;6.406;2023-04-03T05:43:31;7.35;;;2.42;;
54263;SDS011;40178;53.042;6.406;2023-04-03T05:45:57;7.85;;;2.45;;
54263;SDS011;40178;53.042;6.406;2023-04-03T05:48:23;5.30;;;2.38;;
54263;SDS011;40178;53.042;6.406;2023-04-03T05:50:49;15.27;;;2.95;;
54263;SDS011;40178;53.042;6.406;2023-04-03T05:53:19;10.05;;;2.63;;
54263;SDS011;40178;53.042;6.406;2023-04-03T05:55:49;11.80;;;2.70;;
54263;SDS011;40178;53.042;6.406;2023-04-03T05:58:15;6.38;;;2.58;;
54263;SDS011;40178;53.042;6.406;2023-04-03T06:00:40;7.20;;;2.33;;
54263;SDS011;40178;53.042;6.406;2023-04-03T06:03:06;5.40;;;2.17;;
54263;SDS011;40178;53.042;6.406;2023-04-03T06:05:32;9.15;;;2.70;;
54263;SDS011;40178;53.042;6.406;2023-04-03T06:07:57;8.75;;;2.83;;
54263;SDS011;40178;53.042;6.406;2023-04-03T06:10:23;8.70;;;2.55;;
54263;SDS011;40178;53.042;6.406;2023-04-03T06:12:49;8.38;;;3.30;;
54263;SDS011;40178;53.042;6.406;2023-04-03T06:15:15;6.97;;;2.53;;
54263;SDS011;40178;53.042;6.406;2023-04-03T06:17:42;7.63;;;2.72;;
54263;SDS011;40178;53.042;6.406;2023-04-03T06:20:08;7.85;;;3.00;;
54263;SDS011;40178;53.042;6.406;2023-04-03T06:22:34;7.88;;;2.70;;
54263;SDS011;40178;53.042;6.406;2023-04-03T06:25:00;7.78;;;2.75;;
54263;SDS011;40178;53.042;6.406;2023-04-03T06:27:26;6.53;;;2.88;;
54263;SDS011;40178;53.042;6.406;2023-04-03T06:29:52;5.10;;;2.40;;
54263;SDS011;40178;53.042;6.406;2023-04-03T06:32:17;6.07;;;2.83;;
54263;SDS011;40178;53.042;6.406;2023-04-03T06:34:43;10.38;;;2.88;;
54263;SDS011;40178;53.042;6.406;2023-04-03T06:37:27;8.57;;;2.88;;
54263;SDS011;40178;53.042;6.406;2023-04-03T06:39:54;7.15;;;2.85;;
54263;SDS011;40178;53.042;6.406;2023-04-03T06:42:20;9.05;;;2.90;;
54263;SDS011;40178;53.042;6.406;2023-04-03T06:44:47;8.82;;;2.85;;
54263;SDS011;40178;53.042;6.406;2023-04-03T06:47:13;7.97;;;2.50;;
54263;SDS011;40178;53.042;6.406;2023-04-03T06:49:40;9.77;;;2.65;;
54263;SDS011;40178;53.042;6.406;2023-04-03T06:52:06;6.80;;;2.38;;
54263;SDS011;40178;53.042;6.406;2023-04-03T06:54:32;5.57;;;2.28;;
54263;SDS011;40178;53.042;6.406;2023-04-03T06:56:58;7.40;;;2.63;;
54263;SDS011;40178;53.042;6.406;2023-04-03T06:59:24;5.25;;;2.25;;
54263;SDS011;40178;53.042;6.406;2023-04-03T07:01:49;5.75;;;2.20;;
54263;SDS011;40178;53.042;6.406;2023-04-03T07:04:16;6.03;;;2.08;;
54263;SDS011;40178;53.042;6.406;2023-04-03T07:06:41;6.97;;;2.40;;
54263;SDS011;40178;53.042;6.406;2023-04-03T07:09:08;6.15;;;1.90;;
54263;SDS011;40178;53.042;6.406;2023-04-03T07:11:34;6.88;;;1.98;;
54263;SDS011;40178;53.042;6.406;2023-04-03T07:14:01;9.25;;;1.92;;
54263;SDS011;40178;53.042;6.406;2023-04-03T07:16:27;4.38;;;1.67;;
54263;SDS011;40178;53.042;6.406;2023-04-03T07:18:55;7.22;;;2.17;;
54263;SDS011;40178;53.042;6.406;2023-04-03T07:21:22;4.93;;;1.45;;
54263;SDS011;40178;53.042;6.406;2023-04-03T07:23:48;6.30;;;1.73;;
54263;SDS011;40178;53.042;6.406;2023-04-03T07:26:13;7.30;;;1.67;;
54263;SDS011;40178;53.042;6.406;2023-04-03T07:28:39;6.88;;;2.30;;
54263;SDS011;40178;53.042;6.406;2023-04-03T07:31:07;5.18;;;1.40;;
54263;SDS011;40178;53.042;6.406;2023-04-03T07:33:36;6.75;;;1.48;;
54263;SDS011;40178;53.042;6.406;2023-04-03T07:36:03;4.63;;;1.30;;
54263;SDS011;40178;53.042;6.406;2023-04-03T07:38:29;6.45;;;1.40;;
54263;SDS011;40178;53.042;6.406;2023-04-03T07:40:55;8.75;;;1.50;;
54263;SDS011;40178;53.042;6.406;2023-04-03T07:43:21;5.22;;;1.35;;
54263;SDS011;40178;53.042;6.406;2023-04-03T07:45:48;6.22;;;2.03;;
54263;SDS011;40178;53.042;6.406;2023-04-03T07:48:18;5.47;;;1.00;;
54263;SDS011;40178;53.042;6.406;2023-04-03T07:50:45;4.97;;;1.15;;
54263;SDS011;40178;53.042;6.406;2023-04-03T07:53:11;3.22;;;1.00;;
54263;SDS011;40178;53.042;6.406;2023-04-03T07:55:37;5.30;;;1.17;;
54263;SDS011;40178;53.042;6.406;2023-04-03T07:58:08;2.90;;;0.82;;
54263;SDS011;40178;53.042;6.406;2023-04-03T08:00:36;4.20;;;1.10;;
54263;SDS011;40178;53.042;6.406;2023-04-03T08:03:02;4.57;;;1.13;;
54263;SDS011;40178;53.042;6.406;2023-04-03T08:05:27;4.53;;;1.23;;
54263;SDS011;40178;53.042;6.406;2023-04-03T08:07:53;5.90;;;1.63;;
54263;SDS011;40178;53.042;6.406;2023-04-03T08:10:18;6.45;;;1.30;;
54263;SDS011;40178;53.042;6.406;2023-04-03T08:12:45;4.47;;;1.05;;
54263;SDS011;40178;53.042;6.406;2023-04-03T08:15:11;5.38;;;1.00;;
54263;SDS011;40178;53.042;6.406;2023-04-03T08:17:37;4.10;;;1.10;;
54263;SDS011;40178;53.042;6.406;2023-04-03T08:20:06;6.00;;;1.20;;
54263;SDS011;40178;53.042;6.406;2023-04-03T08:22:34;5.13;;;1.00;;
54263;SDS011;40178;53.042;6.406;2023-04-03T08:25:00;4.20;;;1.08;;
54263;SDS011;40178;53.042;6.406;2023-04-03T08:27:26;4.65;;;1.25;;
54263;SDS011;40178;53.042;6.406;2023-04-03T08:29:53;5.32;;;1.13;;
54263;SDS011;40178;53.042;6.406;2023-04-03T08:32:19;4.13;;;0.85;;
54263;SDS011;40178;53.042;6.406;2023-04-03T08:34:45;4.03;;;0.80;;
54263;SDS011;40178;53.042;6.406;2023-04-03T08:37:11;5.45;;;1.10;;
54263;SDS011;40178;53.042;6.406;2023-04-03T08:39:37;4.90;;;0.95;;
54263;SDS011;40178;53.042;6.406;2023-04-03T08:42:04;4.00;;;1.17;;
54263;SDS011;40178;53.042;6.406;2023-04-03T08:44:54;4.10;;;1.05;;
54263;SDS011;40178;53.042;6.406;2023-04-03T08:47:38;2.85;;;0.70;;
54263;SDS011;40178;53.042;6.406;2023-04-03T08:50:20;2.50;;;0.70;;
54263;SDS011;40178;53.042;6.406;2023-04-03T08:52:50;5.63;;;0.90;;
54263;SDS011;40178;53.042;6.406;2023-04-03T08:55:28;3.75;;;0.80;;
54263;SDS011;40178;53.042;6.406;2023-04-03T08:58:02;3.45;;;0.90;;
54263;SDS011;40178;53.042;6.406;2023-04-03T09:00:47;3.65;;;0.98;;
54263;SDS011;40178;53.042;6.406;2023-04-03T09:03:15;3.33;;;1.23;;
54263;SDS011;40178;53.042;6.406;2023-04-03T09:05:51;3.83;;;0.95;;
54263;SDS011;40178;53.042;6.406;2023-04-03T09:10:43;2.47;;;0.57;;
54263;SDS011;40178;53.042;6.406;2023-04-03T09:15:45;3.95;;;0.80;;
54263;SDS011;40178;53.042;6.406;2023-04-03T09:23:51;6.43;;;0.93;;
54263;SDS011;40178;53.042;6.406;2023-04-03T09:28:51;2.13;;;0.50;;
54263;SDS011;40178;53.042;6.406;2023-04-03T09:31:23;2.53;;;0.70;;
54263;SDS011;40178;53.042;6.406;2023-04-03T09:33:59;2.55;;;0.50;;
54263;SDS011;40178;53.042;6.406;2023-04-03T09:39:31;2.38;;;0.55;;
54263;SDS011;40178;53.042;6.406;2023-04-03T09:42:15;2.05;;;0.45;;
54263;SDS011;40178;53.042;6.406;2023-04-03T09:44:48;4.60;;;0.50;;
54263;SDS011;40178;53.042;6.406;2023-04-03T09:47:35;2.67;;;0.60;;
54263;SDS011;40178;53.042;6.406;2023-04-03T09:52:42;3.33;;;0.90;;
54263;SDS011;40178;53.042;6.406;2023-04-03T09:55:19;1.80;;;0.38;;
54263;SDS011;40178;53.042;6.406;2023-04-03T09:57:58;2.55;;;0.50;;
54263;SDS011;40178;53.042;6.406;2023-04-03T10:00:26;1.80;;;0.57;;
54263;SDS011;40178;53.042;6.406;2023-04-03T10:03:02;2.83;;;0.35;;
54263;SDS011;40178;53.042;6.406;2023-04-03T10:05:33;1.80;;;0.50;;
54263;SDS011;40178;53.042;6.406;2023-04-03T10:10:41;9.45;;;1.92;;
54263;SDS011;40178;53.042;6.406;2023-04-03T10:15:40;2.67;;;0.47;;
54263;SDS011;40178;53.042;6.406;2023-04-03T10:18:29;2.13;;;0.50;;
54263;SDS011;40178;53.042;6.406;2023-04-03T10:21:13;3.20;;;0.77;;
54263;SDS011;40178;53.042;6.406;2023-04-03T10:23:48;2.13;;;0.57;;
54263;SDS011;40178;53.042;6.406;2023-04-03T10:26:21;2.47;;;0.55;;
54263;SDS011;40178;53.042;6.406;2023-04-03T10:34:12;2.67;;;0.60;;
54263;SDS011;40178;53.042;6.406;2023-04-03T10:36:53;1.63;;;0.35;;
54263;SDS011;40178;53.042;6.406;2023-04-03T10:39:46;2.80;;;0.43;;
54263;SDS011;40178;53.042;6.406;2023-04-03T10:42:25;2.65;;;0.60;;
54263;SDS011;40178;53.042;6.406;2023-04-03T10:45:01;1.88;;;0.30;;
54263;SDS011;40178;53.042;6.406;2023-04-03T10:47:48;2.13;;;0.32;;
54263;SDS011;40178;53.042;6.406;2023-04-03T10:58:30;2.33;;;0.30;;
54263;SDS011;40178;53.042;6.406;2023-04-03T11:01:03;3.78;;;0.40;;
54263;SDS011;40178;53.042;6.406;2023-04-03T11:03:43;1.27;;;0.40;;
54263;SDS011;40178;53.042;6.406;2023-04-03T11:06:12;1.33;;;0.20;;
54263;SDS011;40178;53.042;6.406;2023-04-03T11:08:48;1.88;;;0.30;;
54263;SDS011;40178;53.042;6.406;2023-04-03T11:11:22;1.75;;;0.20;;
54263;SDS011;40178;53.042;6.406;2023-04-03T11:13:54;1.65;;;0.22;;
54263;SDS011;40178;53.042;6.406;2023-04-03T11:16:25;2.17;;;0.30;;
54263;SDS011;40178;53.042;6.406;2023-04-03T11:19:04;2.22;;;0.40;;
54263;SDS011;40178;53.042;6.406;2023-04-03T11:22:03;2.17;;;0.40;;
54263;SDS011;40178;53.042;6.406;2023-04-03T11:24:55;1.30;;;0.30;;
54263;SDS011;40178;53.042;6.406;2023-04-03T11:27:30;4.95;;;0.73;;
54263;SDS011;40178;53.042;6.406;2023-04-03T11:30:06;1.70;;;0.40;;
54263;SDS011;40178;53.042;6.406;2023-04-03T11:35:24;2.20;;;0.35;;
54263;SDS011;40178;53.042;6.406;2023-04-03T11:37:51;1.48;;;0.40;;
54263;SDS011;40178;53.042;6.406;2023-04-03T11:40:22;3.78;;;0.68;;
54263;SDS011;40178;53.042;6.406;2023-04-03T11:42:54;1.73;;;0.40;;
54263;SDS011;40178;53.042;6.406;2023-04-03T11:50:48;2.70;;;0.63;;
54263;SDS011;40178;53.042;6.406;2023-04-03T12:16:26;2.70;;;0.50;;
54263;SDS011;40178;53.042;6.406;2023-04-03T12:24:30;1.88;;;0.55;;
54263;SDS011;40178;53.042;6.406;2023-04-03T12:27:07;1.80;;;0.52;;
54263;SDS011;40178;53.042;6.406;2023-04-03T12:30:23;2.42;;;0.50;;
54263;SDS011;40178;53.042;6.406;2023-04-03T12:33:33;1.70;;;0.57;;
54263;SDS011;40178;53.042;6.406;2023-04-03T12:35:56;2.63;;;0.50;;
54263;SDS011;40178;53.042;6.406;2023-04-03T12:41:43;2.95;;;0.50;;
54263;SDS011;40178;53.042;6.406;2023-04-03T12:44:18;2.38;;;0.50;;
54263;SDS011;40178;53.042;6.406;2023-04-03T12:46:48;1.95;;;0.40;;
54263;SDS011;40178;53.042;6.406;2023-04-03T12:52:41;3.00;;;0.70;;
54263;SDS011;40178;53.042;6.406;2023-04-03T12:55:16;3.55;;;0.77;;
54263;SDS011;40178;53.042;6.406;2023-04-03T12:57:42;1.45;;;0.40;;
54263;SDS011;40178;53.042;6.406;2023-04-03T13:00:18;2.20;;;0.40;;
54263;SDS011;40178;53.042;6.406;2023-04-03T13:02:45;2.13;;;0.57;;
54263;SDS011;40178;53.042;6.406;2023-04-03T13:05:13;1.88;;;0.57;;
54263;SDS011;40178;53.042;6.406;2023-04-03T13:07:43;4.05;;;0.70;;
54263;SDS011;40178;53.042;6.406;2023-04-03T13:10:14;1.50;;;0.63;;
54263;SDS011;40178;53.042;6.406;2023-04-03T13:12:52;1.95;;;0.57;;
54263;SDS011;40178;53.042;6.406;2023-04-03T13:15:28;3.60;;;0.60;;
54263;SDS011;40178;53.042;6.406;2023-04-03T13:18:04;2.85;;;0.65;;
54263;SDS011;40178;53.042;6.406;2023-04-03T13:20:31;1.90;;;0.60;;
54263;SDS011;40178;53.042;6.406;2023-04-03T13:23:03;2.45;;;0.60;;
54263;SDS011;40178;53.042;6.406;2023-04-03T13:25:35;2.53;;;0.73;;
54263;SDS011;40178;53.042;6.406;2023-04-03T13:28:03;2.47;;;0.60;;
54263;SDS011;40178;53.042;6.406;2023-04-03T13:30:32;3.95;;;1.55;;
54263;SDS011;40178;53.042;6.406;2023-04-03T13:33:02;4.25;;;1.00;;
54263;SDS011;40178;53.042;6.406;2023-04-03T13:35:35;2.10;;;0.70;;
54263;SDS011;40178;53.042;6.406;2023-04-03T13:38:19;2.80;;;0.70;;
54263;SDS011;40178;53.042;6.406;2023-04-03T13:40:53;2.58;;;0.60;;
54263;SDS011;40178;53.042;6.406;2023-04-03T13:43:21;2.30;;;0.57;;
54263;SDS011;40178;53.042;6.406;2023-04-03T13:46:20;2.67;;;0.60;;
54263;SDS011;40178;53.042;6.406;2023-04-03T13:48:50;3.08;;;0.50;;
54263;SDS011;40178;53.042;6.406;2023-04-03T13:51:20;4.93;;;0.60;;
54263;SDS011;40178;53.042;6.406;2023-04-03T13:53:52;1.95;;;0.52;;
54263;SDS011;40178;53.042;6.406;2023-04-03T13:56:34;3.40;;;0.60;;
54263;SDS011;40178;53.042;6.406;2023-04-03T14:04:23;2.55;;;0.75;;
54263;SDS011;40178;53.042;6.406;2023-04-03T14:06:52;2.38;;;0.60;;
54263;SDS011;40178;53.042;6.406;2023-04-03T14:09:19;2.40;;;0.65;;
54263;SDS011;40178;53.042;6.406;2023-04-03T14:11:47;2.03;;;0.43;;
54263;SDS011;40178;53.042;6.406;2023-04-03T14:14:17;1.83;;;0.50;;
54263;SDS011;40178;53.042;6.406;2023-04-03T14:16:47;3.67;;;0.50;;
54263;SDS011;40178;53.042;6.406;2023-04-03T14:19:27;2.20;;;0.60;;
54263;SDS011;40178;53.042;6.406;2023-04-03T14:21:55;2.25;;;0.60;;
54263;SDS011;40178;53.042;6.406;2023-04-03T14:24:22;1.58;;;0.40;;
54263;SDS011;40178;53.042;6.406;2023-04-03T14:26:49;2.28;;;0.40;;
54263;SDS011;40178;53.042;6.406;2023-04-03T14:29:17;2.67;;;0.40;;
54263;SDS011;40178;53.042;6.406;2023-04-03T14:31:43;2.20;;;0.73;;
54263;SDS011;40178;53.042;6.406;2023-04-03T14:34:11;2.15;;;0.65;;
54263;SDS011;40178;53.042;6.406;2023-04-03T14:36:38;2.25;;;0.50;;
54263;SDS011;40178;53.042;6.406;2023-04-03T14:39:06;1.45;;;0.40;;
54263;SDS011;40178;53.042;6.406;2023-04-03T14:41:33;3.60;;;0.70;;
54263;SDS011;40178;53.042;6.406;2023-04-03T14:44:00;6.32;;;0.70;;
54263;SDS011;40178;53.042;6.406;2023-04-03T14:46:30;1.90;;;0.50;;
54263;SDS011;40178;53.042;6.406;2023-04-03T14:48:58;2.95;;;0.55;;
54263;SDS011;40178;53.042;6.406;2023-04-03T14:51:24;2.35;;;0.40;;
54263;SDS011;40178;53.042;6.406;2023-04-03T14:53:51;4.32;;;0.50;;
54263;SDS011;40178;53.042;6.406;2023-04-03T14:56:21;3.15;;;0.43;;
54263;SDS011;40178;53.042;6.406;2023-04-03T14:58:53;2.47;;;0.60;;
54263;SDS011;40178;53.042;6.406;2023-04-03T15:01:21;3.10;;;0.73;;
54263;SDS011;40178;53.042;6.406;2023-04-03T15:03:47;3.10;;;0.52;;
54263;SDS011;40178;53.042;6.406;2023-04-03T15:06:13;4.63;;;0.70;;
54263;SDS011;40178;53.042;6.406;2023-04-03T15:08:41;2.08;;;0.40;;
54263;SDS011;40178;53.042;6.406;2023-04-03T15:11:08;1.45;;;0.52;;
54263;SDS011;40178;53.042;6.406;2023-04-03T15:13:35;1.48;;;0.40;;
54263;SDS011;40178;53.042;6.406;2023-04-03T15:16:01;1.08;;;0.30;;
54263;SDS011;40178;53.042;6.406;2023-04-03T15:18:29;2.67;;;0.63;;
54263;SDS011;40178;53.042;6.406;2023-04-03T15:20:59;2.35;;;0.50;;
54263;SDS011;40178;53.042;6.406;2023-04-03T15:23:24;3.03;;;0.40;;
54263;SDS011;40178;53.042;6.406;2023-04-03T15:25:51;2.53;;;0.32;;
54263;SDS011;40178;53.042;6.406;2023-04-03T15:28:19;1.65;;;0.30;;
54263;SDS011;40178;53.042;6.406;2023-04-03T15:30:50;2.47;;;0.40;;
54263;SDS011;40178;53.042;6.406;2023-04-03T15:33:16;1.88;;;0.47;;
54263;SDS011;40178;53.042;6.406;2023-04-03T15:35:42;1.83;;;0.40;;
54263;SDS011;40178;53.042;6.406;2023-04-03T15:38:08;3.42;;;0.70;;
54263;SDS011;40178;53.042;6.406;2023-04-03T15:40:34;1.50;;;0.32;;
54263;SDS011;40178;53.042;6.406;2023-04-03T15:43:00;2.38;;;0.60;;
54263;SDS011;40178;53.042;6.406;2023-04-03T15:45:28;1.70;;;0.30;;
54263;SDS011;40178;53.042;6.406;2023-04-03T15:47:55;3.13;;;0.40;;
54263;SDS011;40178;53.042;6.406;2023-04-03T15:50:21;2.70;;;0.40;;
54263;SDS011;40178;53.042;6.406;2023-04-03T15:52:49;4.10;;;0.63;;
54263;SDS011;40178;53.042;6.406;2023-04-03T15:55:19;2.90;;;0.40;;
54263;SDS011;40178;53.042;6.406;2023-04-03T15:57:46;1.23;;;0.50;;
54263;SDS011;40178;53.042;6.406;2023-04-03T16:00:12;3.25;;;0.65;;
54263;SDS011;40178;53.042;6.406;2023-04-03T16:02:38;1.83;;;0.40;;
54263;SDS011;40178;53.042;6.406;2023-04-03T16:05:05;1.95;;;0.50;;
54263;SDS011;40178;53.042;6.406;2023-04-03T16:07:31;5.40;;;0.73;;
54263;SDS011;40178;53.042;6.406;2023-04-03T16:09:56;2.22;;;0.50;;
54263;SDS011;40178;53.042;6.406;2023-04-03T16:12:22;2.88;;;0.57;;
54263;SDS011;40178;53.042;6.406;2023-04-03T16:14:48;2.25;;;0.60;;
54263;SDS011;40178;53.042;6.406;2023-04-03T16:17:13;7.13;;;1.65;;
54263;SDS011;40178;53.042;6.406;2023-04-03T16:19:39;2.28;;;0.65;;
54263;SDS011;40178;53.042;6.406;2023-04-03T16:22:05;4.47;;;0.80;;
54263;SDS011;40178;53.042;6.406;2023-04-03T16:24:30;2.67;;;0.60;;
54263;SDS011;40178;53.042;6.406;2023-04-03T16:26:57;3.35;;;0.80;;
54263;SDS011;40178;53.042;6.406;2023-04-03T16:29:23;2.25;;;0.50;;
54263;SDS011;40178;53.042;6.406;2023-04-03T16:31:48;2.72;;;0.90;;
54263;SDS011;40178;53.042;6.406;2023-04-03T16:34:14;2.60;;;0.68;;
54263;SDS011;40178;53.042;6.406;2023-04-03T16:36:41;2.70;;;0.50;;
54263;SDS011;40178;53.042;6.406;2023-04-03T16:39:07;2.22;;;0.50;;
54263;SDS011;40178;53.042;6.406;2023-04-03T16:41:34;2.92;;;0.63;;
54263;SDS011;40178;53.042;6.406;2023-04-03T16:44:00;3.03;;;0.60;;
54263;SDS011;40178;53.042;6.406;2023-04-03T16:46:26;2.80;;;0.32;;
54263;SDS011;40178;53.042;6.406;2023-04-03T16:48:52;1.70;;;0.60;;
54263;SDS011;40178;53.042;6.406;2023-04-03T16:51:17;2.20;;;0.50;;